Terminal Aerodrome Forecast
Issued by NWS

Home | Current Version | Previous Version | Text Only | Print | Product List | Glossary On
Versions: 1 2 3 4 5 6 7 8 9 10 11 12 13 14 15 16 17 18
000
FTUS45 KGJT 010549
TAFCNY
TAF
KCNY 010549Z 0106/0206 01007KT P6SM BKN250
     FM011100 07009KT P6SM BKN250
     FM012100 06010KT P6SM VCSH SCT050 BKN100
     FM020300 08005KT P6SM VCSH BKN050=

USA.gov is the U.S. government's official web portal to all federal, state and local government web resources and services.